createdAt,value
2023-06-10T00:01:41.630Z,78.60
2023-06-10T00:04:08.221Z,79.27
2023-06-10T00:06:37.526Z,78.78
2023-06-10T00:09:05.927Z,79.35
2023-06-10T00:11:33.612Z,80.10
2023-06-10T00:14:00.912Z,80.28
2023-06-10T00:16:27.735Z,80.42
2023-06-10T00:18:56.685Z,81.83
2023-06-10T00:21:23.289Z,83.24
2023-06-10T00:23:50.690Z,84.72
2023-06-10T00:26:17.376Z,85.62
2023-06-10T00:28:45.875Z,86.20
2023-06-10T00:31:12.497Z,86.32
2023-06-10T00:33:38.979Z,85.38
2023-06-10T00:36:05.594Z,85.42
2023-06-10T00:38:32.891Z,86.68
2023-06-10T00:40:59.322Z,87.90
2023-06-10T00:43:25.870Z,89.15
2023-06-10T00:45:52.997Z,89.14
2023-06-10T00:48:19.756Z,88.05
2023-06-10T00:50:47.721Z,87.54
2023-06-10T00:53:14.335Z,88.12
2023-06-10T00:55:42.065Z,87.90
2023-06-10T00:58:08.994Z,87.67
2023-06-10T01:00:35.612Z,87.64
2023-06-10T01:03:02.168Z,89.00
2023-06-10T01:05:28.696Z,89.95
2023-06-10T01:08:08.242Z,89.51
2023-06-10T01:10:40.690Z,88.92
2023-06-10T01:13:09.364Z,88.42
2023-06-10T01:15:36.468Z,88.08
2023-06-10T01:18:09.820Z,86.92
2023-06-10T01:20:40.883Z,87.15
2023-06-10T01:23:08.034Z,88.38
2023-06-10T01:25:45.225Z,89.68
2023-06-10T01:28:32.368Z,90.84
2023-06-10T01:31:43.088Z,91.87
2023-06-10T01:34:15.382Z,92.05
2023-06-10T01:36:42.461Z,92.38
2023-06-10T01:39:10.016Z,93.19
2023-06-10T01:41:36.700Z,93.80
2023-06-10T01:44:03.723Z,93.18
2023-06-10T01:46:30.302Z,93.34
2023-06-10T01:48:57.039Z,93.48
2023-06-10T01:51:23.493Z,93.50
2023-06-10T01:53:50.070Z,93.23
2023-06-10T01:56:19.026Z,92.91
2023-06-10T01:58:45.711Z,92.50
2023-06-10T02:01:12.502Z,93.08
2023-06-10T02:03:39.132Z,93.18
2023-06-10T02:06:05.783Z,94.52
2023-06-10T02:08:32.232Z,94.55
2023-06-10T02:10:58.676Z,94.21
2023-06-10T02:13:25.120Z,93.99
2023-06-10T02:15:51.560Z,95.20
2023-06-10T02:18:21.597Z,97.17
2023-06-10T02:20:48.114Z,98.22
2023-06-10T02:23:14.806Z,98.75
2023-06-10T02:25:41.355Z,98.98
2023-06-10T02:28:08.086Z,99.48
2023-06-10T02:30:34.575Z,100.00
2023-06-10T02:33:02.259Z,100.00
2023-06-10T02:35:28.797Z,99.03
2023-06-10T02:37:55.335Z,98.50
2023-06-10T02:40:21.884Z,98.15
2023-06-10T02:42:48.321Z,98.35
2023-06-10T02:45:15.228Z,98.19
2023-06-10T02:47:42.674Z,98.27
2023-06-10T02:50:09.659Z,98.91
2023-06-10T02:52:36.167Z,100.00
2023-06-10T02:55:02.626Z,99.37
2023-06-10T02:57:29.060Z,98.73
2023-06-10T02:59:55.672Z,97.61
2023-06-10T03:02:22.666Z,96.74
2023-06-10T03:04:51.728Z,96.32
2023-06-10T03:07:19.757Z,96.60
2023-06-10T03:09:46.242Z,97.89
2023-06-10T03:12:12.831Z,97.30
2023-06-10T03:14:39.813Z,97.11
2023-06-10T03:17:07.145Z,96.13
2023-06-10T03:19:34.591Z,97.32
2023-06-10T03:22:11.148Z,97.50
2023-06-10T03:24:40.932Z,98.13
2023-06-10T03:27:08.706Z,99.85
2023-06-10T03:29:35.221Z,100.00
2023-06-10T03:32:02.155Z,100.00
2023-06-10T03:34:28.698Z,99.89
2023-06-10T03:36:55.146Z,99.36
2023-06-10T03:39:21.626Z,99.61
2023-06-10T03:41:48.099Z,99.95
2023-06-10T03:44:14.930Z,100.00
2023-06-10T03:46:41.444Z,100.00
2023-06-10T03:49:08.225Z,100.00
2023-06-10T03:51:36.787Z,99.93
2023-06-10T03:54:03.411Z,99.32
2023-06-10T03:56:30.035Z,99.49
2023-06-10T03:58:56.850Z,99.43
2023-06-10T04:01:24.444Z,98.08
2023-06-10T04:03:52.425Z,99.02
2023-06-10T04:06:18.950Z,98.54
2023-06-10T04:08:45.893Z,98.64
2023-06-10T04:11:12.355Z,98.44
2023-06-10T04:13:38.891Z,98.09
2023-06-10T04:16:05.789Z,97.18
2023-06-10T04:18:32.245Z,97.49
2023-06-10T04:20:58.691Z,97.88
2023-06-10T04:23:25.658Z,97.24
2023-06-10T04:25:52.129Z,98.25
2023-06-10T04:28:18.598Z,99.33
2023-06-10T04:30:46.003Z,99.94
2023-06-10T04:33:12.469Z,99.07
2023-06-10T04:35:38.925Z,99.03
2023-06-10T04:38:05.432Z,99.36
2023-06-10T04:40:31.935Z,100.00
2023-06-10T04:42:58.372Z,100.00
2023-06-10T04:45:24.872Z,100.00
2023-06-10T04:47:51.436Z,100.00
2023-06-10T04:50:17.980Z,100.00
2023-06-10T04:52:45.549Z,99.71
2023-06-10T04:55:12.499Z,100.00
2023-06-10T04:57:39.012Z,100.00
2023-06-10T05:00:07.228Z,100.00
2023-06-10T05:02:33.957Z,98.80
2023-06-10T05:05:00.603Z,98.80
2023-06-10T05:07:27.119Z,98.30
2023-06-10T05:09:53.588Z,97.62
2023-06-10T05:12:20.037Z,96.31
2023-06-10T05:14:47.162Z,96.24
2023-06-10T05:17:14.059Z,94.93
2023-06-10T05:19:40.823Z,93.52
2023-06-10T05:22:07.573Z,92.46
2023-06-10T05:24:34.100Z,92.12
2023-06-10T05:27:00.560Z,92.04
2023-06-10T05:29:27.200Z,88.06
2023-06-10T05:31:53.788Z,87.76
2023-06-10T05:34:20.518Z,86.85
2023-06-10T05:36:47.304Z,86.44
2023-06-10T05:39:13.752Z,85.57
2023-06-10T05:41:40.298Z,84.67
2023-06-10T05:44:06.754Z,84.67
2023-06-10T05:46:33.467Z,85.80
2023-06-10T05:48:59.980Z,83.79
2023-06-10T05:51:26.808Z,83.74
2023-06-10T05:53:53.356Z,82.21
2023-06-10T05:56:19.824Z,81.38
2023-06-10T05:58:46.389Z,78.02
2023-06-10T06:01:12.926Z,77.74
2023-06-10T06:03:39.590Z,77.61
2023-06-10T06:06:06.398Z,77.36
2023-06-10T06:08:33.010Z,77.80
2023-06-10T06:10:59.661Z,76.66
2023-06-10T06:13:26.165Z,76.16
2023-06-10T06:15:52.835Z,76.97
2023-06-10T06:18:19.826Z,76.70
2023-06-10T06:20:46.401Z,74.66
2023-06-10T06:23:12.863Z,73.61
2023-06-10T06:25:40.103Z,73.56
2023-06-10T06:28:10.900Z,72.10
2023-06-10T06:30:37.491Z,71.33
2023-06-10T06:33:04.520Z,71.58
2023-06-10T06:35:33.076Z,70.44
2023-06-10T06:37:59.948Z,70.52
2023-06-10T06:40:26.567Z,70.20
2023-06-10T06:42:53.031Z,68.49
2023-06-10T06:45:19.525Z,68.27
2023-06-10T06:47:46.033Z,68.40
2023-06-10T06:50:12.651Z,69.15
2023-06-10T06:52:39.213Z,68.32
2023-06-10T06:55:06.294Z,67.37
2023-06-10T06:57:33.102Z,67.59
2023-06-10T06:59:59.606Z,69.21
2023-06-10T07:02:26.066Z,68.32
2023-06-10T07:04:52.659Z,67.97
2023-06-10T07:07:19.300Z,67.13
2023-06-10T07:09:45.728Z,67.23
2023-06-10T07:12:12.187Z,65.81
2023-06-10T07:14:38.658Z,65.70
2023-06-10T07:17:05.320Z,66.03
2023-06-10T07:19:31.867Z,63.12
2023-06-10T07:21:58.338Z,63.99
2023-06-10T07:24:24.782Z,62.48
2023-06-10T07:26:51.732Z,63.25
2023-06-10T07:29:18.213Z,63.21
2023-06-10T07:31:44.666Z,61.65
2023-06-10T07:34:11.204Z,61.72
2023-06-10T07:36:37.667Z,61.21
2023-06-10T07:39:04.142Z,60.92
2023-06-10T07:41:30.616Z,60.58
2023-06-10T07:43:57.190Z,61.70
2023-06-10T07:46:24.664Z,62.76
2023-06-10T07:48:51.222Z,62.46
2023-06-10T07:51:17.970Z,61.94
2023-06-10T07:53:44.473Z,61.68
2023-06-10T07:56:11.091Z,60.93
2023-06-10T07:58:37.559Z,60.44
2023-06-10T08:01:04.038Z,59.75
2023-06-10T08:03:30.550Z,59.09
2023-06-10T08:05:57.122Z,59.55
2023-06-10T08:08:23.558Z,58.08
2023-06-10T08:10:50.848Z,58.28
2023-06-10T08:13:17.409Z,58.60
2023-06-10T08:15:43.834Z,57.96
2023-06-10T08:18:10.432Z,58.60
2023-06-10T08:20:36.955Z,58.59
2023-06-10T08:23:03.448Z,57.21
2023-06-10T08:25:30.377Z,56.17
2023-06-10T08:27:58.563Z,55.21
2023-06-10T08:30:25.007Z,58.07
2023-06-10T08:32:52.895Z,56.71
2023-06-10T08:35:19.386Z,55.43
2023-06-10T08:37:45.852Z,54.84
2023-06-10T08:40:12.876Z,55.39
2023-06-10T08:42:52.803Z,56.51
2023-06-10T08:45:19.906Z,54.66
2023-06-10T08:47:49.755Z,54.70
2023-06-10T08:50:17.652Z,55.08
2023-06-10T08:52:45.658Z,53.48
2023-06-10T08:55:16.199Z,53.44
2023-06-10T08:57:43.723Z,51.98
2023-06-10T09:00:11.400Z,52.69
2023-06-10T09:02:39.185Z,52.58
2023-06-10T09:05:06.768Z,53.97
2023-06-10T09:07:35.434Z,54.75
2023-06-10T09:10:04.008Z,54.52
2023-06-10T09:12:30.910Z,52.65
2023-06-10T09:14:57.379Z,51.90
2023-06-10T09:17:23.855Z,51.05
2023-06-10T09:19:51.443Z,51.19
2023-06-10T09:22:17.892Z,49.80
2023-06-10T09:24:44.332Z,49.79
2023-06-10T09:27:10.820Z,49.08
2023-06-10T09:29:54.502Z,49.12
2023-06-10T09:32:21.608Z,48.65
2023-06-10T09:34:48.722Z,48.74
2023-06-10T09:37:21.837Z,48.91
2023-06-10T09:40:10.261Z,50.17
2023-06-10T09:42:39.193Z,51.17
2023-06-10T09:45:07.170Z,49.84
2023-06-10T09:47:33.792Z,48.98
2023-06-10T09:50:00.974Z,50.14
2023-06-10T09:52:30.286Z,49.49
2023-06-10T09:55:02.149Z,48.80
2023-06-10T09:57:36.764Z,49.20
2023-06-10T10:00:09.254Z,50.43
2023-06-10T10:02:50.490Z,48.07
2023-06-10T10:05:18.701Z,46.46
2023-06-10T10:07:46.066Z,48.72
2023-06-10T10:10:14.427Z,46.95
2023-06-10T10:12:41.615Z,46.11
2023-06-10T10:15:09.709Z,46.71
2023-06-10T10:18:07.736Z,44.77
2023-06-10T10:20:35.555Z,44.95
2023-06-10T10:23:04.419Z,45.64
2023-06-10T10:25:35.656Z,45.08
2023-06-10T10:28:05.290Z,47.17
2023-06-10T10:30:35.519Z,46.84
2023-06-10T10:33:09.408Z,46.99
2023-06-10T10:35:37.382Z,45.08
2023-06-10T10:38:04.609Z,44.87
2023-06-10T10:40:31.393Z,45.78
2023-06-10T10:42:59.424Z,45.63
2023-06-10T10:45:28.849Z,44.62
2023-06-10T10:47:58.859Z,45.49
2023-06-10T10:50:25.515Z,45.26
2023-06-10T10:52:57.463Z,44.26
2023-06-10T10:55:24.958Z,42.40
2023-06-10T10:57:57.803Z,42.84
2023-06-10T11:00:45.437Z,44.67
2023-06-10T11:03:20.147Z,44.30
2023-06-10T11:05:49.156Z,43.23
2023-06-10T11:08:16.922Z,44.07
2023-06-10T11:10:53.905Z,42.39
2023-06-10T11:13:21.725Z,42.68
2023-06-10T11:15:51.983Z,42.34
2023-06-10T11:18:27.771Z,42.22
2023-06-10T11:20:56.726Z,43.63
2023-06-10T11:23:29.317Z,44.06
2023-06-10T11:26:22.307Z,43.21
2023-06-10T11:28:48.728Z,43.23
2023-06-10T11:31:20.911Z,41.17
2023-06-10T11:33:49.248Z,40.48
2023-06-10T11:36:15.921Z,41.51
2023-06-10T11:38:42.402Z,43.05
2023-06-10T11:41:08.874Z,42.00
2023-06-10T11:43:35.387Z,42.88
2023-06-10T11:46:03.091Z,40.33
2023-06-10T11:48:31.447Z,39.08
2023-06-10T11:50:58.002Z,40.35
2023-06-10T11:53:24.467Z,38.88
2023-06-10T11:55:52.007Z,39.45
2023-06-10T11:58:23.027Z,40.78
2023-06-10T12:00:51.512Z,41.18
2023-06-10T12:03:18.864Z,41.72
2023-06-10T12:05:59.402Z,41.36
2023-06-10T12:08:26.583Z,39.56
2023-06-10T12:10:53.129Z,39.60
2023-06-10T12:13:19.578Z,39.14
2023-06-10T12:15:46.554Z,38.76
2023-06-10T12:18:20.592Z,37.63
2023-06-10T12:20:47.327Z,37.79
2023-06-10T12:23:14.379Z,36.92
2023-06-10T12:25:41.007Z,38.64
2023-06-10T12:28:11.362Z,37.87
2023-06-10T12:30:37.880Z,36.93
2023-06-10T12:33:04.387Z,35.97
2023-06-10T12:35:30.950Z,35.37
2023-06-10T12:38:02.182Z,35.67
2023-06-10T12:40:29.861Z,35.86
2023-06-10T12:42:57.268Z,36.40
2023-06-10T12:45:30.740Z,34.17
2023-06-10T12:48:10.132Z,33.92
2023-06-10T12:50:40.644Z,34.79
2023-06-10T12:53:07.591Z,33.83
2023-06-10T12:55:34.518Z,33.45
2023-06-10T12:58:02.746Z,33.03
2023-06-10T13:00:32.128Z,35.57
2023-06-10T13:03:02.041Z,35.46
2023-06-10T13:05:29.120Z,35.17
2023-06-10T13:07:55.889Z,33.20
2023-06-10T13:10:25.377Z,33.04
2023-06-10T13:12:53.307Z,30.97
2023-06-10T13:15:19.769Z,30.47
2023-06-10T13:17:52.375Z,30.50
2023-06-10T13:20:19.792Z,31.08
2023-06-10T13:22:46.360Z,30.42
2023-06-10T13:25:13.369Z,33.16
2023-06-10T13:27:40.349Z,32.44
2023-06-10T13:30:09.292Z,31.63
2023-06-10T13:32:36.637Z,33.38
2023-06-10T13:35:05.257Z,34.76
2023-06-10T13:37:32.008Z,35.61
2023-06-10T13:39:58.462Z,35.86
2023-06-10T13:42:27.345Z,35.67
2023-06-10T13:44:53.888Z,35.03
2023-06-10T13:47:20.751Z,36.31
2023-06-10T13:49:47.377Z,35.48
2023-06-10T13:52:13.911Z,35.89
2023-06-10T13:54:40.669Z,33.85
2023-06-10T13:57:07.626Z,35.69
2023-06-10T13:59:34.060Z,35.34
2023-06-10T14:02:01.483Z,35.25
2023-06-10T14:04:28.006Z,36.20
2023-06-10T14:06:54.513Z,37.04
2023-06-10T14:09:21.034Z,36.99
2023-06-10T14:11:48.585Z,37.00
2023-06-10T14:14:15.985Z,37.75
2023-06-10T14:16:43.687Z,37.19
2023-06-10T14:19:10.371Z,36.33
2023-06-10T14:21:36.817Z,38.25
2023-06-10T14:24:03.431Z,38.91
2023-06-10T14:26:30.093Z,38.49
2023-06-10T14:28:56.561Z,37.62
2023-06-10T14:31:23.029Z,37.24
2023-06-10T14:33:50.626Z,37.71
2023-06-10T14:36:17.236Z,37.73
2023-06-10T14:38:43.727Z,37.49
2023-06-10T14:41:10.240Z,37.16
2023-06-10T14:43:36.720Z,37.65
2023-06-10T14:46:03.283Z,37.21
2023-06-10T14:48:29.739Z,38.71
2023-06-10T14:50:56.332Z,38.63
2023-06-10T14:53:22.919Z,39.30
2023-06-10T14:55:49.480Z,37.81
2023-06-10T14:58:15.933Z,38.57
2023-06-10T15:00:42.359Z,38.74
2023-06-10T15:03:08.876Z,38.74
2023-06-10T15:05:35.770Z,39.57
2023-06-10T15:08:02.276Z,39.24
2023-06-10T15:10:28.837Z,38.56
2023-06-10T15:12:57.197Z,39.87
2023-06-10T15:15:24.561Z,38.28
2023-06-10T15:17:51.156Z,36.54
2023-06-10T15:20:17.832Z,38.38
2023-06-10T15:22:44.280Z,37.37
2023-06-10T15:25:21.492Z,39.08
2023-06-10T15:27:56.893Z,39.00
2023-06-10T15:30:23.456Z,39.27
2023-06-10T15:32:49.934Z,37.94
2023-06-10T15:35:16.609Z,37.57
2023-06-10T15:37:43.103Z,38.63
2023-06-10T15:40:09.757Z,38.17
2023-06-10T15:42:36.348Z,38.24
2023-06-10T15:45:02.824Z,37.03
2023-06-10T15:47:29.309Z,37.29
2023-06-10T15:49:55.810Z,39.28
2023-06-10T15:52:22.235Z,38.92
2023-06-10T15:54:48.664Z,39.15
2023-06-10T15:57:15.157Z,40.76
2023-06-10T15:59:41.615Z,41.01
2023-06-10T16:02:08.088Z,41.02
2023-06-10T16:04:34.792Z,41.07
2023-06-10T16:07:01.272Z,42.03
2023-06-10T16:09:27.763Z,43.21
2023-06-10T16:11:54.236Z,39.90
2023-06-10T16:14:20.861Z,40.77
2023-06-10T16:16:47.343Z,40.65
2023-06-10T16:19:13.940Z,39.98
2023-06-10T16:21:41.256Z,42.18
2023-06-10T16:24:11.891Z,41.22
2023-06-10T16:26:38.444Z,40.68
2023-06-10T16:29:04.897Z,41.32
2023-06-10T16:31:31.416Z,42.02
2023-06-10T16:33:57.947Z,41.67
2023-06-10T16:36:24.434Z,41.87
2023-06-10T16:38:51.611Z,42.55
2023-06-10T16:41:18.273Z,42.40
2023-06-10T16:43:44.755Z,42.93
2023-06-10T16:46:11.220Z,43.22
2023-06-10T16:48:37.700Z,43.25
2023-06-10T16:51:04.531Z,43.11
2023-06-10T16:53:30.988Z,44.03
2023-06-10T16:55:57.882Z,43.73
2023-06-10T16:58:25.509Z,43.26
2023-06-10T17:00:52.349Z,43.71
2023-06-10T17:03:18.867Z,43.21
2023-06-10T17:05:45.470Z,44.27
2023-06-10T17:08:11.973Z,43.08
2023-06-10T17:10:38.520Z,44.08
2023-06-10T17:13:04.965Z,44.46
2023-06-10T17:15:31.418Z,44.34
2023-06-10T17:17:57.980Z,44.17
2023-06-10T17:20:24.466Z,44.13
2023-06-10T17:22:51.118Z,43.99
2023-06-10T17:25:17.576Z,43.53
2023-06-10T17:27:44.078Z,44.00
2023-06-10T17:30:10.707Z,44.22
2023-06-10T17:32:38.198Z,43.90
2023-06-10T17:35:05.413Z,45.37
2023-06-10T17:37:31.967Z,45.33
2023-06-10T17:39:58.412Z,45.73
2023-06-10T17:42:24.906Z,45.36
2023-06-10T17:44:51.346Z,45.58
2023-06-10T17:47:17.843Z,45.75
2023-06-10T17:49:44.276Z,45.86
2023-06-10T17:52:10.990Z,46.95
2023-06-10T17:54:37.454Z,47.34
2023-06-10T17:57:04.131Z,47.68
2023-06-10T17:59:30.543Z,47.29
2023-06-10T18:01:57.876Z,48.08
2023-06-10T18:04:24.377Z,47.91
2023-06-10T18:06:50.865Z,48.53
2023-06-10T18:09:17.291Z,48.73
2023-06-10T18:11:43.730Z,49.73
2023-06-10T18:14:10.698Z,49.39
2023-06-10T18:16:37.236Z,49.50
2023-06-10T18:19:03.705Z,48.92
2023-06-10T18:21:30.394Z,48.94
2023-06-10T18:23:58.868Z,49.91
2023-06-10T18:26:25.881Z,50.19
2023-06-10T18:28:52.371Z,49.56
2023-06-10T18:31:18.884Z,48.70
2023-06-10T18:33:45.373Z,49.22
2023-06-10T18:36:11.860Z,49.10
2023-06-10T18:38:38.306Z,49.96
2023-06-10T18:41:04.753Z,50.28
2023-06-10T18:43:31.241Z,50.76
2023-06-10T18:45:58.952Z,50.36
2023-06-10T18:48:25.506Z,49.71
2023-06-10T18:50:52.000Z,49.96
2023-06-10T18:53:18.448Z,50.55
2023-06-10T18:55:44.945Z,50.25
2023-06-10T18:58:11.443Z,50.50
2023-06-10T19:00:37.870Z,50.50
2023-06-10T19:03:04.387Z,50.82
2023-06-10T19:05:31.073Z,50.67
2023-06-10T19:07:57.550Z,49.87
2023-06-10T19:10:24.033Z,49.22
2023-06-10T19:12:50.507Z,49.62
2023-06-10T19:15:16.968Z,49.97
2023-06-10T19:17:43.458Z,50.88
2023-06-10T19:20:11.108Z,51.22
2023-06-10T19:22:37.623Z,50.81
2023-06-10T19:25:06.349Z,51.50
2023-06-10T19:27:33.523Z,51.81
2023-06-10T19:30:01.696Z,51.96
2023-06-10T19:32:28.372Z,51.91
2023-06-10T19:34:54.829Z,52.16
2023-06-10T19:37:21.350Z,52.25
2023-06-10T19:39:47.840Z,51.79
2023-06-10T19:42:15.624Z,52.16
2023-06-10T19:44:42.395Z,52.38
2023-06-10T19:47:09.036Z,53.07
2023-06-10T19:49:35.678Z,53.33
2023-06-10T19:52:07.157Z,53.29
2023-06-10T19:54:34.996Z,53.47
2023-06-10T19:57:04.815Z,53.66
2023-06-10T19:59:31.293Z,54.09
2023-06-10T20:01:57.934Z,54.13
2023-06-10T20:04:24.552Z,54.42
2023-06-10T20:06:51.460Z,55.52
2023-06-10T20:09:17.914Z,56.39
2023-06-10T20:11:44.575Z,57.05
2023-06-10T20:14:11.102Z,57.02
2023-06-10T20:16:37.640Z,57.21
2023-06-10T20:19:04.177Z,57.31
2023-06-10T20:21:30.720Z,57.12
2023-06-10T20:23:57.332Z,57.77
2023-06-10T20:26:24.333Z,57.41
2023-06-10T20:28:51.019Z,57.47
2023-06-10T20:31:17.491Z,57.64
2023-06-10T20:33:43.968Z,57.30
2023-06-10T20:36:10.717Z,57.75
2023-06-10T20:38:37.196Z,58.43
2023-06-10T20:41:03.654Z,58.45
2023-06-10T20:43:30.187Z,59.20
2023-06-10T20:45:57.354Z,59.60
2023-06-10T20:48:23.966Z,60.54
2023-06-10T20:50:50.473Z,60.88
2023-06-10T20:53:17.056Z,60.83
2023-06-10T20:55:43.551Z,61.76
2023-06-10T20:58:10.637Z,61.28
2023-06-10T21:00:37.155Z,61.83
2023-06-10T21:03:03.731Z,62.67
2023-06-10T21:05:30.440Z,62.22
2023-06-10T21:07:56.918Z,62.11
2023-06-10T21:10:23.491Z,62.48
2023-06-10T21:12:50.046Z,62.30
2023-06-10T21:15:17.618Z,63.07
2023-06-10T21:17:44.347Z,64.10
2023-06-10T21:20:11.881Z,64.59
2023-06-10T21:22:38.431Z,65.28
2023-06-10T21:25:05.412Z,66.13
2023-06-10T21:27:31.903Z,66.31
2023-06-10T21:29:58.358Z,67.21
2023-06-10T21:32:25.259Z,68.12
2023-06-10T21:34:51.779Z,68.28
2023-06-10T21:37:18.267Z,68.34
2023-06-10T21:39:44.727Z,69.00
2023-06-10T21:42:11.768Z,69.93
2023-06-10T21:44:38.249Z,70.36
2023-06-10T21:47:04.939Z,70.21
2023-06-10T21:49:31.406Z,70.78
2023-06-10T21:51:57.942Z,71.92
2023-06-10T21:54:24.438Z,71.95
2023-06-10T21:56:51.040Z,72.39
2023-06-10T21:59:19.099Z,73.27
2023-06-10T22:01:45.689Z,73.91
2023-06-10T22:04:12.242Z,75.84
2023-06-10T22:06:38.822Z,77.02
2023-06-10T22:09:05.732Z,79.39
2023-06-10T22:11:32.232Z,78.25
2023-06-10T22:13:58.699Z,77.01
2023-06-10T22:16:25.295Z,77.32
2023-06-10T22:18:51.765Z,77.97
2023-06-10T22:21:18.216Z,76.85
2023-06-10T22:23:44.654Z,76.61
2023-06-10T22:26:11.130Z,76.63
2023-06-10T22:28:37.696Z,75.75
2023-06-10T22:31:04.153Z,75.16
2023-06-10T22:33:30.672Z,74.77
2023-06-10T22:35:57.131Z,74.35
2023-06-10T22:38:23.616Z,73.34
2023-06-10T22:40:50.054Z,73.48
2023-06-10T22:43:16.491Z,74.44
2023-06-10T22:45:42.939Z,75.17
2023-06-10T22:48:09.484Z,75.60
2023-06-10T22:50:36.212Z,75.71
2023-06-10T22:53:02.657Z,75.63
2023-06-10T22:55:29.146Z,75.61
2023-06-10T22:57:55.652Z,76.48
2023-06-10T23:00:22.226Z,77.79
2023-06-10T23:02:48.754Z,78.48
2023-06-10T23:05:15.418Z,78.55
2023-06-10T23:07:41.981Z,78.81
2023-06-10T23:10:08.943Z,78.45
2023-06-10T23:12:36.102Z,77.41
2023-06-10T23:15:03.666Z,77.93
2023-06-10T23:17:30.704Z,77.95
2023-06-10T23:19:59.517Z,78.86
2023-06-10T23:22:26.757Z,79.14
2023-06-10T23:24:57.252Z,79.16
2023-06-10T23:27:23.793Z,77.99
2023-06-10T23:32:20.791Z,78.17
2023-06-10T23:34:47.385Z,78.05
2023-06-10T23:37:14.283Z,78.65
2023-06-10T23:39:45.420Z,79.40
2023-06-10T23:42:12.035Z,79.20
2023-06-10T23:44:38.522Z,80.23
2023-06-10T23:47:05.253Z,81.93
2023-06-10T23:49:31.697Z,83.12
2023-06-10T23:51:58.126Z,83.17
2023-06-10T23:54:24.609Z,83.15
2023-06-10T23:56:51.070Z,82.97
2023-06-10T23:59:17.567Z,82.81
